sensor_id;sensor_type;location;lat;lon;timestamp;P1;durP1;ratioP1;P2;durP2;ratioP2
75584;SDS011;64162;53.508;10.476;2022-11-20T00:01:12;7.30;;;1.48;;
75584;SDS011;64162;53.508;10.476;2022-11-20T00:03:40;4.95;;;0.82;;
75584;SDS011;64162;53.508;10.476;2022-11-20T00:06:09;5.82;;;1.33;;
75584;SDS011;64162;53.508;10.476;2022-11-20T00:08:38;5.75;;;0.80;;
75584;SDS011;64162;53.508;10.476;2022-11-20T00:11:05;5.18;;;1.38;;
75584;SDS011;64162;53.508;10.476;2022-11-20T00:13:35;5.18;;;1.25;;
75584;SDS011;64162;53.508;10.476;2022-11-20T00:16:03;3.65;;;0.88;;
75584;SDS011;64162;53.508;10.476;2022-11-20T00:18:42;4.65;;;1.02;;
75584;SDS011;64162;53.508;10.476;2022-11-20T00:21:11;4.38;;;0.75;;
75584;SDS011;64162;53.508;10.476;2022-11-20T00:23:39;4.13;;;0.60;;
75584;SDS011;64162;53.508;10.476;2022-11-20T00:26:06;5.10;;;0.82;;
75584;SDS011;64162;53.508;10.476;2022-11-20T00:28:35;6.95;;;0.85;;
75584;SDS011;64162;53.508;10.476;2022-11-20T00:31:03;5.15;;;1.42;;
75584;SDS011;64162;53.508;10.476;2022-11-20T00:33:31;3.95;;;1.10;;
75584;SDS011;64162;53.508;10.476;2022-11-20T00:36:01;5.38;;;1.00;;
75584;SDS011;64162;53.508;10.476;2022-11-20T00:38:32;5.90;;;0.88;;
75584;SDS011;64162;53.508;10.476;2022-11-20T00:41:00;7.80;;;1.55;;
75584;SDS011;64162;53.508;10.476;2022-11-20T00:43:28;3.17;;;1.13;;
75584;SDS011;64162;53.508;10.476;2022-11-20T00:46:05;5.25;;;1.35;;
75584;SDS011;64162;53.508;10.476;2022-11-20T00:48:33;6.50;;;0.93;;
75584;SDS011;64162;53.508;10.476;2022-11-20T00:51:00;4.05;;;0.47;;
75584;SDS011;64162;53.508;10.476;2022-11-20T00:53:27;4.80;;;1.77;;
75584;SDS011;64162;53.508;10.476;2022-11-20T00:55:54;4.32;;;3.83;;
75584;SDS011;64162;53.508;10.476;2022-11-20T00:58:28;7.80;;;1.10;;
75584;SDS011;64162;53.508;10.476;2022-11-20T01:01:06;6.32;;;0.65;;
75584;SDS011;64162;53.508;10.476;2022-11-20T01:03:35;6.60;;;2.95;;
75584;SDS011;64162;53.508;10.476;2022-11-20T01:06:03;5.63;;;1.10;;
75584;SDS011;64162;53.508;10.476;2022-11-20T01:08:32;7.20;;;2.00;;
75584;SDS011;64162;53.508;10.476;2022-11-20T01:11:04;7.88;;;1.02;;
75584;SDS011;64162;53.508;10.476;2022-11-20T01:13:33;6.05;;;1.48;;
75584;SDS011;64162;53.508;10.476;2022-11-20T01:16:27;5.32;;;1.17;;
75584;SDS011;64162;53.508;10.476;2022-11-20T01:18:54;5.55;;;1.23;;
75584;SDS011;64162;53.508;10.476;2022-11-20T01:21:24;5.65;;;1.25;;
75584;SDS011;64162;53.508;10.476;2022-11-20T01:23:56;7.97;;;1.50;;
75584;SDS011;64162;53.508;10.476;2022-11-20T01:26:24;6.00;;;1.48;;
75584;SDS011;64162;53.508;10.476;2022-11-20T01:28:53;5.50;;;1.10;;
75584;SDS011;64162;53.508;10.476;2022-11-20T01:31:21;8.15;;;1.77;;
75584;SDS011;64162;53.508;10.476;2022-11-20T01:33:50;12.20;;;4.15;;
75584;SDS011;64162;53.508;10.476;2022-11-20T01:36:19;5.57;;;1.13;;
75584;SDS011;64162;53.508;10.476;2022-11-20T01:38:47;10.07;;;1.63;;
75584;SDS011;64162;53.508;10.476;2022-11-20T01:41:14;11.45;;;1.85;;
75584;SDS011;64162;53.508;10.476;2022-11-20T01:44:02;7.55;;;1.60;;
75584;SDS011;64162;53.508;10.476;2022-11-20T01:46:30;8.88;;;1.58;;
75584;SDS011;64162;53.508;10.476;2022-11-20T01:49:02;7.05;;;1.40;;
75584;SDS011;64162;53.508;10.476;2022-11-20T01:51:42;7.80;;;1.65;;
75584;SDS011;64162;53.508;10.476;2022-11-20T01:54:13;9.30;;;3.33;;
75584;SDS011;64162;53.508;10.476;2022-11-20T01:56:45;11.68;;;2.13;;
75584;SDS011;64162;53.508;10.476;2022-11-20T01:59:15;8.45;;;1.90;;
75584;SDS011;64162;53.508;10.476;2022-11-20T02:01:43;7.30;;;1.40;;
75584;SDS011;64162;53.508;10.476;2022-11-20T02:04:10;7.85;;;2.75;;
75584;SDS011;64162;53.508;10.476;2022-11-20T02:06:42;8.57;;;2.65;;
75584;SDS011;64162;53.508;10.476;2022-11-20T02:09:12;7.55;;;1.88;;
75584;SDS011;64162;53.508;10.476;2022-11-20T02:11:40;9.43;;;1.50;;
75584;SDS011;64162;53.508;10.476;2022-11-20T02:14:06;9.73;;;3.13;;
75584;SDS011;64162;53.508;10.476;2022-11-20T02:16:35;10.90;;;2.00;;
75584;SDS011;64162;53.508;10.476;2022-11-20T02:19:11;7.97;;;1.63;;
75584;SDS011;64162;53.508;10.476;2022-11-20T02:21:49;11.77;;;4.72;;
75584;SDS011;64162;53.508;10.476;2022-11-20T02:24:33;10.32;;;2.25;;
75584;SDS011;64162;53.508;10.476;2022-11-20T02:27:04;10.75;;;2.53;;
75584;SDS011;64162;53.508;10.476;2022-11-20T02:29:39;12.18;;;2.85;;
75584;SDS011;64162;53.508;10.476;2022-11-20T02:34:57;10.05;;;2.50;;
75584;SDS011;64162;53.508;10.476;2022-11-20T02:37:27;8.40;;;2.00;;
75584;SDS011;64162;53.508;10.476;2022-11-20T02:39:58;12.52;;;3.83;;
75584;SDS011;64162;53.508;10.476;2022-11-20T02:42:25;9.68;;;2.65;;
75584;SDS011;64162;53.508;10.476;2022-11-20T02:44:51;8.43;;;3.13;;
75584;SDS011;64162;53.508;10.476;2022-11-20T02:47:18;7.75;;;2.42;;
75584;SDS011;64162;53.508;10.476;2022-11-20T02:49:44;10.07;;;2.53;;
75584;SDS011;64162;53.508;10.476;2022-11-20T02:52:11;7.50;;;2.22;;
75584;SDS011;64162;53.508;10.476;2022-11-20T02:54:37;10.90;;;2.63;;
75584;SDS011;64162;53.508;10.476;2022-11-20T02:57:04;7.32;;;1.67;;
75584;SDS011;64162;53.508;10.476;2022-11-20T02:59:30;10.52;;;2.30;;
75584;SDS011;64162;53.508;10.476;2022-11-20T03:01:57;12.68;;;2.85;;
75584;SDS011;64162;53.508;10.476;2022-11-20T03:04:23;14.32;;;2.47;;
75584;SDS011;64162;53.508;10.476;2022-11-20T03:06:49;9.48;;;2.42;;
75584;SDS011;64162;53.508;10.476;2022-11-20T03:09:16;13.20;;;2.90;;
75584;SDS011;64162;53.508;10.476;2022-11-20T03:11:42;13.77;;;2.70;;
75584;SDS011;64162;53.508;10.476;2022-11-20T03:14:09;14.15;;;3.47;;
75584;SDS011;64162;53.508;10.476;2022-11-20T03:16:35;13.02;;;3.55;;
75584;SDS011;64162;53.508;10.476;2022-11-20T03:19:02;14.02;;;3.38;;
75584;SDS011;64162;53.508;10.476;2022-11-20T03:21:28;10.70;;;2.95;;
75584;SDS011;64162;53.508;10.476;2022-11-20T03:23:55;14.82;;;3.20;;
75584;SDS011;64162;53.508;10.476;2022-11-20T03:26:23;10.75;;;2.53;;
75584;SDS011;64162;53.508;10.476;2022-11-20T03:28:55;13.32;;;2.83;;
75584;SDS011;64162;53.508;10.476;2022-11-20T03:31:24;21.85;;;3.65;;
75584;SDS011;64162;53.508;10.476;2022-11-20T03:33:53;14.05;;;3.58;;
75584;SDS011;64162;53.508;10.476;2022-11-20T03:36:20;14.18;;;3.50;;
75584;SDS011;64162;53.508;10.476;2022-11-20T03:38:47;13.13;;;3.03;;
75584;SDS011;64162;53.508;10.476;2022-11-20T03:41:15;18.92;;;3.85;;
75584;SDS011;64162;53.508;10.476;2022-11-20T03:43:47;12.68;;;3.17;;
75584;SDS011;64162;53.508;10.476;2022-11-20T03:46:14;14.93;;;4.35;;
75584;SDS011;64162;53.508;10.476;2022-11-20T03:48:41;15.88;;;4.35;;
75584;SDS011;64162;53.508;10.476;2022-11-20T03:51:13;19.83;;;4.63;;
75584;SDS011;64162;53.508;10.476;2022-11-20T03:53:45;14.73;;;3.03;;
75584;SDS011;64162;53.508;10.476;2022-11-20T03:58:40;10.30;;;2.20;;
75584;SDS011;64162;53.508;10.476;2022-11-20T04:01:08;20.60;;;4.93;;
75584;SDS011;64162;53.508;10.476;2022-11-20T04:03:40;18.30;;;4.47;;
75584;SDS011;64162;53.508;10.476;2022-11-20T04:06:09;18.13;;;4.38;;
75584;SDS011;64162;53.508;10.476;2022-11-20T04:08:43;22.83;;;5.00;;
75584;SDS011;64162;53.508;10.476;2022-11-20T04:11:12;23.48;;;5.07;;
75584;SDS011;64162;53.508;10.476;2022-11-20T04:13:40;18.60;;;4.45;;
75584;SDS011;64162;53.508;10.476;2022-11-20T04:16:07;21.45;;;5.30;;
75584;SDS011;64162;53.508;10.476;2022-11-20T04:18:35;20.27;;;4.63;;
75584;SDS011;64162;53.508;10.476;2022-11-20T04:21:02;19.73;;;4.63;;
75584;SDS011;64162;53.508;10.476;2022-11-20T04:23:30;16.33;;;4.45;;
75584;SDS011;64162;53.508;10.476;2022-11-20T04:26:03;19.00;;;5.05;;
75584;SDS011;64162;53.508;10.476;2022-11-20T04:28:32;23.40;;;5.60;;
75584;SDS011;64162;53.508;10.476;2022-11-20T04:31:09;13.82;;;3.33;;
75584;SDS011;64162;53.508;10.476;2022-11-20T04:33:36;30.85;;;5.80;;
75584;SDS011;64162;53.508;10.476;2022-11-20T04:36:07;23.70;;;4.55;;
75584;SDS011;64162;53.508;10.476;2022-11-20T04:38:37;23.27;;;4.88;;
75584;SDS011;64162;53.508;10.476;2022-11-20T04:41:06;25.98;;;5.32;;
75584;SDS011;64162;53.508;10.476;2022-11-20T04:43:35;23.63;;;4.95;;
75584;SDS011;64162;53.508;10.476;2022-11-20T04:46:02;12.07;;;2.90;;
75584;SDS011;64162;53.508;10.476;2022-11-20T04:48:28;18.48;;;4.50;;
75584;SDS011;64162;53.508;10.476;2022-11-20T04:50:56;18.70;;;4.05;;
75584;SDS011;64162;53.508;10.476;2022-11-20T04:53:23;23.92;;;4.80;;
75584;SDS011;64162;53.508;10.476;2022-11-20T04:55:50;26.10;;;5.25;;
75584;SDS011;64162;53.508;10.476;2022-11-20T04:58:16;17.23;;;4.18;;
75584;SDS011;64162;53.508;10.476;2022-11-20T05:00:43;15.45;;;3.72;;
75584;SDS011;64162;53.508;10.476;2022-11-20T05:03:09;19.27;;;4.13;;
75584;SDS011;64162;53.508;10.476;2022-11-20T05:05:36;21.95;;;5.53;;
75584;SDS011;64162;53.508;10.476;2022-11-20T05:08:02;22.88;;;4.57;;
75584;SDS011;64162;53.508;10.476;2022-11-20T05:10:29;19.48;;;4.95;;
75584;SDS011;64162;53.508;10.476;2022-11-20T05:12:56;21.77;;;5.47;;
75584;SDS011;64162;53.508;10.476;2022-11-20T05:15:23;18.83;;;4.75;;
75584;SDS011;64162;53.508;10.476;2022-11-20T05:17:50;19.77;;;4.47;;
75584;SDS011;64162;53.508;10.476;2022-11-20T05:20:17;19.70;;;5.75;;
75584;SDS011;64162;53.508;10.476;2022-11-20T05:22:44;18.15;;;3.70;;
75584;SDS011;64162;53.508;10.476;2022-11-20T05:25:11;19.88;;;4.50;;
75584;SDS011;64162;53.508;10.476;2022-11-20T05:27:37;19.88;;;5.47;;
75584;SDS011;64162;53.508;10.476;2022-11-20T05:30:04;22.40;;;4.15;;
75584;SDS011;64162;53.508;10.476;2022-11-20T05:32:32;20.27;;;4.18;;
75584;SDS011;64162;53.508;10.476;2022-11-20T05:35:01;19.85;;;4.70;;
75584;SDS011;64162;53.508;10.476;2022-11-20T05:37:28;28.05;;;4.72;;
75584;SDS011;64162;53.508;10.476;2022-11-20T05:39:55;27.80;;;6.38;;
75584;SDS011;64162;53.508;10.476;2022-11-20T05:42:22;21.75;;;5.45;;
75584;SDS011;64162;53.508;10.476;2022-11-20T05:44:58;20.73;;;5.10;;
75584;SDS011;64162;53.508;10.476;2022-11-20T05:47:31;24.52;;;5.63;;
75584;SDS011;64162;53.508;10.476;2022-11-20T05:49:58;31.58;;;4.97;;
75584;SDS011;64162;53.508;10.476;2022-11-20T05:52:28;24.70;;;5.28;;
75584;SDS011;64162;53.508;10.476;2022-11-20T05:54:55;20.63;;;4.53;;
75584;SDS011;64162;53.508;10.476;2022-11-20T05:57:22;23.38;;;5.22;;
75584;SDS011;64162;53.508;10.476;2022-11-20T05:59:48;18.20;;;4.72;;
75584;SDS011;64162;53.508;10.476;2022-11-20T06:02:15;24.98;;;4.65;;
75584;SDS011;64162;53.508;10.476;2022-11-20T06:04:41;22.92;;;5.97;;
75584;SDS011;64162;53.508;10.476;2022-11-20T06:07:08;20.73;;;4.40;;
75584;SDS011;64162;53.508;10.476;2022-11-20T06:09:34;21.85;;;5.20;;
75584;SDS011;64162;53.508;10.476;2022-11-20T06:12:01;24.20;;;4.93;;
75584;SDS011;64162;53.508;10.476;2022-11-20T06:14:27;23.98;;;6.47;;
75584;SDS011;64162;53.508;10.476;2022-11-20T06:16:54;18.90;;;4.55;;
75584;SDS011;64162;53.508;10.476;2022-11-20T06:19:21;26.38;;;5.85;;
75584;SDS011;64162;53.508;10.476;2022-11-20T06:21:48;23.83;;;5.32;;
75584;SDS011;64162;53.508;10.476;2022-11-20T06:24:16;27.67;;;5.57;;
75584;SDS011;64162;53.508;10.476;2022-11-20T06:26:43;29.13;;;6.80;;
75584;SDS011;64162;53.508;10.476;2022-11-20T06:29:10;26.17;;;5.97;;
75584;SDS011;64162;53.508;10.476;2022-11-20T06:31:36;22.98;;;5.22;;
75584;SDS011;64162;53.508;10.476;2022-11-20T06:34:04;26.02;;;6.57;;
75584;SDS011;64162;53.508;10.476;2022-11-20T06:36:32;27.80;;;8.88;;
75584;SDS011;64162;53.508;10.476;2022-11-20T06:38:59;23.55;;;5.53;;
75584;SDS011;64162;53.508;10.476;2022-11-20T06:41:26;30.65;;;6.65;;
75584;SDS011;64162;53.508;10.476;2022-11-20T06:43:54;23.85;;;6.82;;
75584;SDS011;64162;53.508;10.476;2022-11-20T06:46:21;28.85;;;6.57;;
75584;SDS011;64162;53.508;10.476;2022-11-20T06:48:48;27.83;;;6.93;;
75584;SDS011;64162;53.508;10.476;2022-11-20T06:51:15;25.63;;;6.18;;
75584;SDS011;64162;53.508;10.476;2022-11-20T06:53:42;25.95;;;5.70;;
75584;SDS011;64162;53.508;10.476;2022-11-20T06:56:08;24.33;;;6.10;;
75584;SDS011;64162;53.508;10.476;2022-11-20T06:58:35;25.83;;;7.95;;
75584;SDS011;64162;53.508;10.476;2022-11-20T07:01:07;24.50;;;5.82;;
75584;SDS011;64162;53.508;10.476;2022-11-20T07:03:36;24.52;;;6.20;;
75584;SDS011;64162;53.508;10.476;2022-11-20T07:06:02;29.83;;;7.40;;
75584;SDS011;64162;53.508;10.476;2022-11-20T07:08:30;26.65;;;11.27;;
75584;SDS011;64162;53.508;10.476;2022-11-20T07:10:57;30.20;;;7.95;;
75584;SDS011;64162;53.508;10.476;2022-11-20T07:15:52;28.20;;;8.88;;
75584;SDS011;64162;53.508;10.476;2022-11-20T07:18:18;20.98;;;8.07;;
75584;SDS011;64162;53.508;10.476;2022-11-20T07:20:45;31.73;;;7.47;;
75584;SDS011;64162;53.508;10.476;2022-11-20T07:23:11;29.33;;;7.95;;
75584;SDS011;64162;53.508;10.476;2022-11-20T07:25:38;31.80;;;12.35;;
75584;SDS011;64162;53.508;10.476;2022-11-20T07:28:04;28.08;;;8.68;;
75584;SDS011;64162;53.508;10.476;2022-11-20T07:30:31;27.73;;;10.75;;
75584;SDS011;64162;53.508;10.476;2022-11-20T07:32:57;29.15;;;6.82;;
75584;SDS011;64162;53.508;10.476;2022-11-20T07:35:24;32.85;;;7.85;;
75584;SDS011;64162;53.508;10.476;2022-11-20T07:37:51;38.05;;;9.30;;
75584;SDS011;64162;53.508;10.476;2022-11-20T07:40:18;35.55;;;8.95;;
75584;SDS011;64162;53.508;10.476;2022-11-20T07:42:48;31.55;;;8.20;;
75584;SDS011;64162;53.508;10.476;2022-11-20T07:45:15;30.17;;;8.75;;
75584;SDS011;64162;53.508;10.476;2022-11-20T07:47:42;24.38;;;8.82;;
75584;SDS011;64162;53.508;10.476;2022-11-20T07:50:09;27.20;;;8.95;;
75584;SDS011;64162;53.508;10.476;2022-11-20T07:52:36;32.75;;;8.35;;
75584;SDS011;64162;53.508;10.476;2022-11-20T07:55:02;26.55;;;7.47;;
75584;SDS011;64162;53.508;10.476;2022-11-20T07:57:29;24.58;;;8.13;;
75584;SDS011;64162;53.508;10.476;2022-11-20T07:59:56;24.98;;;7.10;;
75584;SDS011;64162;53.508;10.476;2022-11-20T08:02:22;20.27;;;6.90;;
75584;SDS011;64162;53.508;10.476;2022-11-20T08:04:49;22.75;;;7.35;;
75584;SDS011;64162;53.508;10.476;2022-11-20T08:07:15;20.27;;;7.57;;
75584;SDS011;64162;53.508;10.476;2022-11-20T08:09:42;25.45;;;9.75;;
75584;SDS011;64162;53.508;10.476;2022-11-20T08:12:10;24.30;;;7.47;;
75584;SDS011;64162;53.508;10.476;2022-11-20T08:15:10;27.98;;;7.75;;
75584;SDS011;64162;53.508;10.476;2022-11-20T08:17:38;21.85;;;7.28;;
75584;SDS011;64162;53.508;10.476;2022-11-20T08:20:05;26.85;;;8.50;;
75584;SDS011;64162;53.508;10.476;2022-11-20T08:22:31;27.10;;;6.95;;
75584;SDS011;64162;53.508;10.476;2022-11-20T08:24:58;22.67;;;7.00;;
75584;SDS011;64162;53.508;10.476;2022-11-20T08:27:24;22.33;;;6.85;;
75584;SDS011;64162;53.508;10.476;2022-11-20T08:29:51;12.38;;;4.95;;
75584;SDS011;64162;53.508;10.476;2022-11-20T08:32:17;18.23;;;5.95;;
75584;SDS011;64162;53.508;10.476;2022-11-20T08:34:44;12.18;;;4.15;;
75584;SDS011;64162;53.508;10.476;2022-11-20T08:37:10;12.30;;;3.60;;
75584;SDS011;64162;53.508;10.476;2022-11-20T08:39:37;13.13;;;3.88;;
75584;SDS011;64162;53.508;10.476;2022-11-20T08:42:06;13.65;;;4.50;;
75584;SDS011;64162;53.508;10.476;2022-11-20T08:44:33;13.63;;;5.95;;
75584;SDS011;64162;53.508;10.476;2022-11-20T08:47:00;13.95;;;5.03;;
75584;SDS011;64162;53.508;10.476;2022-11-20T08:49:26;13.07;;;5.80;;
75584;SDS011;64162;53.508;10.476;2022-11-20T08:51:53;11.52;;;4.10;;
75584;SDS011;64162;53.508;10.476;2022-11-20T08:54:21;12.95;;;4.85;;
75584;SDS011;64162;53.508;10.476;2022-11-20T08:56:48;13.15;;;4.82;;
75584;SDS011;64162;53.508;10.476;2022-11-20T08:59:15;13.45;;;4.35;;
75584;SDS011;64162;53.508;10.476;2022-11-20T09:01:48;14.63;;;4.85;;
75584;SDS011;64162;53.508;10.476;2022-11-20T09:04:15;9.80;;;3.15;;
75584;SDS011;64162;53.508;10.476;2022-11-20T09:06:41;9.57;;;3.33;;
75584;SDS011;64162;53.508;10.476;2022-11-20T09:09:08;5.32;;;1.38;;
75584;SDS011;64162;53.508;10.476;2022-11-20T09:11:34;10.07;;;2.92;;
75584;SDS011;64162;53.508;10.476;2022-11-20T09:14:02;10.52;;;2.75;;
75584;SDS011;64162;53.508;10.476;2022-11-20T09:16:28;10.13;;;3.30;;
75584;SDS011;64162;53.508;10.476;2022-11-20T09:18:55;9.52;;;2.95;;
75584;SDS011;64162;53.508;10.476;2022-11-20T09:21:32;10.70;;;4.60;;
75584;SDS011;64162;53.508;10.476;2022-11-20T09:23:59;41.42;;;28.55;;
75584;SDS011;64162;53.508;10.476;2022-11-20T09:26:25;7.57;;;3.03;;
75584;SDS011;64162;53.508;10.476;2022-11-20T09:28:52;7.13;;;2.88;;
75584;SDS011;64162;53.508;10.476;2022-11-20T09:31:22;7.82;;;3.45;;
75584;SDS011;64162;53.508;10.476;2022-11-20T09:33:50;30.95;;;18.40;;
75584;SDS011;64162;53.508;10.476;2022-11-20T09:36:16;6.95;;;3.10;;
75584;SDS011;64162;53.508;10.476;2022-11-20T09:38:45;10.57;;;5.72;;
75584;SDS011;64162;53.508;10.476;2022-11-20T09:44:32;12.40;;;6.82;;
75584;SDS011;64162;53.508;10.476;2022-11-20T09:47:30;11.10;;;2.85;;
75584;SDS011;64162;53.508;10.476;2022-11-20T09:52:49;13.35;;;6.97;;
75584;SDS011;64162;53.508;10.476;2022-11-20T09:55:21;7.80;;;2.53;;
75584;SDS011;64162;53.508;10.476;2022-11-20T09:57:54;7.38;;;2.33;;
75584;SDS011;64162;53.508;10.476;2022-11-20T10:00:21;9.20;;;2.63;;
75584;SDS011;64162;53.508;10.476;2022-11-20T10:05:20;7.53;;;2.38;;
75584;SDS011;64162;53.508;10.476;2022-11-20T10:13:48;6.93;;;2.40;;
75584;SDS011;64162;53.508;10.476;2022-11-20T10:22:15;5.45;;;2.90;;
75584;SDS011;64162;53.508;10.476;2022-11-20T10:29:59;4.95;;;1.42;;
75584;SDS011;64162;53.508;10.476;2022-11-20T10:32:36;4.80;;;1.38;;
75584;SDS011;64162;53.508;10.476;2022-11-20T10:43:52;5.63;;;4.30;;
75584;SDS011;64162;53.508;10.476;2022-11-20T10:46:26;3.17;;;0.93;;
75584;SDS011;64162;53.508;10.476;2022-11-20T10:49:04;3.95;;;1.40;;
75584;SDS011;64162;53.508;10.476;2022-11-20T10:54:17;4.45;;;0.38;;
75584;SDS011;64162;53.508;10.476;2022-11-20T10:59:59;1.75;;;0.98;;
75584;SDS011;64162;53.508;10.476;2022-11-20T11:02:44;3.85;;;1.17;;
75584;SDS011;64162;53.508;10.476;2022-11-20T11:07:52;4.32;;;0.95;;
75584;SDS011;64162;53.508;10.476;2022-11-20T11:10:22;6.05;;;1.48;;
75584;SDS011;64162;53.508;10.476;2022-11-20T11:12:56;4.50;;;0.90;;
75584;SDS011;64162;53.508;10.476;2022-11-20T11:15:50;5.65;;;0.98;;
75584;SDS011;64162;53.508;10.476;2022-11-20T11:21:38;6.15;;;1.83;;
75584;SDS011;64162;53.508;10.476;2022-11-20T11:24:15;5.13;;;0.98;;
75584;SDS011;64162;53.508;10.476;2022-11-20T11:27:04;7.80;;;1.95;;
75584;SDS011;64162;53.508;10.476;2022-11-20T11:29:40;4.15;;;0.80;;
75584;SDS011;64162;53.508;10.476;2022-11-20T11:32:29;2.70;;;0.55;;
75584;SDS011;64162;53.508;10.476;2022-11-20T11:37:32;1.83;;;0.25;;
75584;SDS011;64162;53.508;10.476;2022-11-20T11:40:03;2.28;;;0.47;;
75584;SDS011;64162;53.508;10.476;2022-11-20T11:42:52;2.58;;;0.38;;
75584;SDS011;64162;53.508;10.476;2022-11-20T11:45:22;1.77;;;0.35;;
75584;SDS011;64162;53.508;10.476;2022-11-20T11:47:50;3.30;;;0.13;;
75584;SDS011;64162;53.508;10.476;2022-11-20T11:50:20;2.90;;;0.40;;
75584;SDS011;64162;53.508;10.476;2022-11-20T11:52:53;5.43;;;0.70;;
75584;SDS011;64162;53.508;10.476;2022-11-20T12:00:49;3.85;;;2.83;;
75584;SDS011;64162;53.508;10.476;2022-11-20T12:03:24;2.33;;;0.55;;
75584;SDS011;64162;53.508;10.476;2022-11-20T12:05:57;1.52;;;0.40;;
75584;SDS011;64162;53.508;10.476;2022-11-20T12:09:09;2.20;;;0.17;;
75584;SDS011;64162;53.508;10.476;2022-11-20T12:11:45;2.22;;;0.63;;
75584;SDS011;64162;53.508;10.476;2022-11-20T12:14:38;4.45;;;0.93;;
75584;SDS011;64162;53.508;10.476;2022-11-20T12:17:11;2.75;;;0.52;;
75584;SDS011;64162;53.508;10.476;2022-11-20T12:19:40;3.47;;;0.35;;
75584;SDS011;64162;53.508;10.476;2022-11-20T12:30:24;0.68;;;0.10;;
75584;SDS011;64162;53.508;10.476;2022-11-20T12:42:02;0.75;;;0.30;;
75584;SDS011;64162;53.508;10.476;2022-11-20T12:48:11;1.67;;;0.10;;
75584;SDS011;64162;53.508;10.476;2022-11-20T12:54:05;0.93;;;0.40;;
75584;SDS011;64162;53.508;10.476;2022-11-20T13:07:53;0.40;;;0.00;;
75584;SDS011;64162;53.508;10.476;2022-11-20T13:10:38;0.68;;;0.10;;
75584;SDS011;64162;53.508;10.476;2022-11-20T13:13:21;0.65;;;0.00;;
75584;SDS011;64162;53.508;10.476;2022-11-20T13:16:00;0.68;;;0.20;;
75584;SDS011;64162;53.508;10.476;2022-11-20T13:18:29;0.85;;;0.03;;
75584;SDS011;64162;53.508;10.476;2022-11-20T13:21:01;1.08;;;0.00;;
75584;SDS011;64162;53.508;10.476;2022-11-20T13:23:28;1.52;;;0.40;;
75584;SDS011;64162;53.508;10.476;2022-11-20T13:26:05;0.73;;;0.05;;
75584;SDS011;64162;53.508;10.476;2022-11-20T13:31:09;2.40;;;0.35;;
75584;SDS011;64162;53.508;10.476;2022-11-20T13:33:58;1.90;;;0.00;;
75584;SDS011;64162;53.508;10.476;2022-11-20T13:36:28;2.63;;;0.43;;
75584;SDS011;64162;53.508;10.476;2022-11-20T13:38:56;0.45;;;0.03;;
75584;SDS011;64162;53.508;10.476;2022-11-20T13:44:33;0.80;;;0.35;;
75584;SDS011;64162;53.508;10.476;2022-11-20T13:50:13;1.90;;;0.28;;
75584;SDS011;64162;53.508;10.476;2022-11-20T13:58:31;1.27;;;0.20;;
75584;SDS011;64162;53.508;10.476;2022-11-20T14:04:05;1.42;;;0.35;;
75584;SDS011;64162;53.508;10.476;2022-11-20T14:06:42;0.88;;;0.50;;
75584;SDS011;64162;53.508;10.476;2022-11-20T14:09:28;2.17;;;0.20;;
75584;SDS011;64162;53.508;10.476;2022-11-20T14:11:58;1.45;;;0.32;;
75584;SDS011;64162;53.508;10.476;2022-11-20T14:14:33;1.70;;;0.40;;
75584;SDS011;64162;53.508;10.476;2022-11-20T14:17:07;2.67;;;0.95;;
75584;SDS011;64162;53.508;10.476;2022-11-20T14:20:05;2.72;;;0.50;;
75584;SDS011;64162;53.508;10.476;2022-11-20T14:22:38;2.45;;;0.93;;
75584;SDS011;64162;53.508;10.476;2022-11-20T14:27:43;3.00;;;0.38;;
75584;SDS011;64162;53.508;10.476;2022-11-20T14:30:18;3.42;;;0.30;;
75584;SDS011;64162;53.508;10.476;2022-11-20T14:32:51;2.22;;;0.38;;
75584;SDS011;64162;53.508;10.476;2022-11-20T14:35:28;2.05;;;0.40;;
75584;SDS011;64162;53.508;10.476;2022-11-20T14:38:09;2.08;;;0.95;;
75584;SDS011;64162;53.508;10.476;2022-11-20T14:46:05;1.80;;;0.40;;
75584;SDS011;64162;53.508;10.476;2022-11-20T14:48:47;2.58;;;0.40;;
75584;SDS011;64162;53.508;10.476;2022-11-20T14:51:31;3.50;;;0.85;;
75584;SDS011;64162;53.508;10.476;2022-11-20T14:54:08;2.60;;;0.52;;
75584;SDS011;64162;53.508;10.476;2022-11-20T14:56:36;2.80;;;0.40;;
75584;SDS011;64162;53.508;10.476;2022-11-20T14:59:03;4.18;;;0.73;;
75584;SDS011;64162;53.508;10.476;2022-11-20T15:01:31;2.13;;;0.47;;
75584;SDS011;64162;53.508;10.476;2022-11-20T15:04:00;3.55;;;0.70;;
75584;SDS011;64162;53.508;10.476;2022-11-20T15:06:31;2.63;;;0.82;;
75584;SDS011;64162;53.508;10.476;2022-11-20T15:08:58;3.13;;;0.38;;
75584;SDS011;64162;53.508;10.476;2022-11-20T15:11:32;4.47;;;1.15;;
75584;SDS011;64162;53.508;10.476;2022-11-20T15:14:02;3.85;;;0.75;;
75584;SDS011;64162;53.508;10.476;2022-11-20T15:16:30;4.45;;;0.57;;
75584;SDS011;64162;53.508;10.476;2022-11-20T15:18:58;3.33;;;1.38;;
75584;SDS011;64162;53.508;10.476;2022-11-20T15:21:25;4.13;;;1.15;;
75584;SDS011;64162;53.508;10.476;2022-11-20T15:23:52;4.00;;;1.25;;
75584;SDS011;64162;53.508;10.476;2022-11-20T15:26:26;4.22;;;1.23;;
75584;SDS011;64162;53.508;10.476;2022-11-20T15:28:54;6.40;;;0.98;;
75584;SDS011;64162;53.508;10.476;2022-11-20T15:31:29;4.95;;;1.55;;
75584;SDS011;64162;53.508;10.476;2022-11-20T15:33:56;4.00;;;0.90;;
75584;SDS011;64162;53.508;10.476;2022-11-20T15:36:25;3.40;;;0.60;;
75584;SDS011;64162;53.508;10.476;2022-11-20T15:38:52;3.03;;;0.55;;
75584;SDS011;64162;53.508;10.476;2022-11-20T15:41:19;4.13;;;0.93;;
75584;SDS011;64162;53.508;10.476;2022-11-20T15:43:45;4.45;;;1.45;;
75584;SDS011;64162;53.508;10.476;2022-11-20T15:46:13;2.70;;;1.15;;
75584;SDS011;64162;53.508;10.476;2022-11-20T15:48:42;3.88;;;1.10;;
75584;SDS011;64162;53.508;10.476;2022-11-20T15:53:42;4.60;;;1.20;;
75584;SDS011;64162;53.508;10.476;2022-11-20T15:56:11;4.90;;;1.42;;
75584;SDS011;64162;53.508;10.476;2022-11-20T15:58:39;3.58;;;1.08;;
75584;SDS011;64162;53.508;10.476;2022-11-20T16:01:10;4.63;;;0.95;;
75584;SDS011;64162;53.508;10.476;2022-11-20T16:03:38;5.85;;;1.83;;
75584;SDS011;64162;53.508;10.476;2022-11-20T16:06:05;7.05;;;1.58;;
75584;SDS011;64162;53.508;10.476;2022-11-20T16:08:32;3.40;;;0.55;;
75584;SDS011;64162;53.508;10.476;2022-11-20T16:11:01;3.42;;;1.25;;
75584;SDS011;64162;53.508;10.476;2022-11-20T16:13:31;3.72;;;1.00;;
75584;SDS011;64162;53.508;10.476;2022-11-20T16:50:13;8.35;;;2.00;;
75584;SDS011;64162;53.508;10.476;2022-11-20T16:52:40;5.43;;;1.45;;
75584;SDS011;64162;53.508;10.476;2022-11-20T16:55:07;3.95;;;1.13;;
75584;SDS011;64162;53.508;10.476;2022-11-20T16:57:34;4.47;;;1.33;;
75584;SDS011;64162;53.508;10.476;2022-11-20T17:00:01;5.57;;;1.55;;
75584;SDS011;64162;53.508;10.476;2022-11-20T17:02:28;3.92;;;1.27;;
75584;SDS011;64162;53.508;10.476;2022-11-20T17:04:54;5.47;;;1.55;;
75584;SDS011;64162;53.508;10.476;2022-11-20T17:07:21;4.28;;;0.85;;
75584;SDS011;64162;53.508;10.476;2022-11-20T17:09:48;6.10;;;1.55;;
75584;SDS011;64162;53.508;10.476;2022-11-20T17:12:14;4.28;;;1.00;;
75584;SDS011;64162;53.508;10.476;2022-11-20T17:14:41;3.55;;;0.77;;
75584;SDS011;64162;53.508;10.476;2022-11-20T17:17:10;5.47;;;0.98;;
75584;SDS011;64162;53.508;10.476;2022-11-20T17:19:37;5.07;;;2.10;;
75584;SDS011;64162;53.508;10.476;2022-11-20T17:22:03;5.80;;;1.88;;
75584;SDS011;64162;53.508;10.476;2022-11-20T17:24:30;6.00;;;0.95;;